sensor_id;sensor_type;location;lat;lon;timestamp;temperature;humidity
23813;DHT22;12087;45.190;5.688;2024-02-28T00:00:21;10.80;99.90
23813;DHT22;12087;45.190;5.688;2024-02-28T00:05:43;10.80;99.90
23813;DHT22;12087;45.190;5.688;2024-02-28T00:11:08;10.80;99.90
23813;DHT22;12087;45.190;5.688;2024-02-28T00:16:30;10.80;99.90
23813;DHT22;12087;45.190;5.688;2024-02-28T00:21:52;10.80;99.90
23813;DHT22;12087;45.190;5.688;2024-02-28T00:27:15;10.70;99.90
23813;DHT22;12087;45.190;5.688;2024-02-28T00:32:38;10.70;99.90
23813;DHT22;12087;45.190;5.688;2024-02-28T00:38:00;10.60;99.90
23813;DHT22;12087;45.190;5.688;2024-02-28T00:43:24;10.60;99.90
23813;DHT22;12087;45.190;5.688;2024-02-28T00:48:46;10.60;99.90
23813;DHT22;12087;45.190;5.688;2024-02-28T00:54:08;10.60;99.90
23813;DHT22;12087;45.190;5.688;2024-02-28T00:59:31;10.60;99.90
23813;DHT22;12087;45.190;5.688;2024-02-28T01:04:55;10.60;99.90
23813;DHT22;12087;45.190;5.688;2024-02-28T01:10:17;10.60;99.90
23813;DHT22;12087;45.190;5.688;2024-02-28T01:15:41;10.60;99.90
23813;DHT22;12087;45.190;5.688;2024-02-28T01:21:03;10.60;99.90
23813;DHT22;12087;45.190;5.688;2024-02-28T01:26:26;10.60;99.90
23813;DHT22;12087;45.190;5.688;2024-02-28T01:31:49;10.60;99.90
23813;DHT22;12087;45.190;5.688;2024-02-28T01:37:12;10.50;99.90
23813;DHT22;12087;45.190;5.688;2024-02-28T01:42:34;10.50;99.90
23813;DHT22;12087;45.190;5.688;2024-02-28T01:47:59;10.50;99.90
23813;DHT22;12087;45.190;5.688;2024-02-28T01:53:21;10.50;99.90
23813;DHT22;12087;45.190;5.688;2024-02-28T01:58:46;10.40;99.90
23813;DHT22;12087;45.190;5.688;2024-02-28T02:04:10;10.40;99.90
23813;DHT22;12087;45.190;5.688;2024-02-28T02:09:34;10.40;99.90
23813;DHT22;12087;45.190;5.688;2024-02-28T02:14:56;10.40;99.90
23813;DHT22;12087;45.190;5.688;2024-02-28T02:20:21;10.30;99.90
23813;DHT22;12087;45.190;5.688;2024-02-28T02:25:45;10.30;99.90
23813;DHT22;12087;45.190;5.688;2024-02-28T02:31:08;10.20;99.90
23813;DHT22;12087;45.190;5.688;2024-02-28T02:36:30;10.30;99.90
23813;DHT22;12087;45.190;5.688;2024-02-28T02:41:54;10.30;99.90
23813;DHT22;12087;45.190;5.688;2024-02-28T02:47:16;10.30;99.90
23813;DHT22;12087;45.190;5.688;2024-02-28T02:52:38;10.30;99.90
23813;DHT22;12087;45.190;5.688;2024-02-28T02:58:02;10.20;99.90
23813;DHT22;12087;45.190;5.688;2024-02-28T03:03:24;10.20;99.90
23813;DHT22;12087;45.190;5.688;2024-02-28T03:08:46;10.20;99.90
23813;DHT22;12087;45.190;5.688;2024-02-28T03:14:10;10.10;99.90
23813;DHT22;12087;45.190;5.688;2024-02-28T03:19:32;10.10;99.90
23813;DHT22;12087;45.190;5.688;2024-02-28T03:24:56;10.10;99.90
23813;DHT22;12087;45.190;5.688;2024-02-28T03:30:19;10.10;99.90
23813;DHT22;12087;45.190;5.688;2024-02-28T03:35:41;10.10;99.90
23813;DHT22;12087;45.190;5.688;2024-02-28T03:41:05;10.00;99.90
23813;DHT22;12087;45.190;5.688;2024-02-28T03:46:28;9.90;99.90
23813;DHT22;12087;45.190;5.688;2024-02-28T03:51:50;9.90;99.90
23813;DHT22;12087;45.190;5.688;2024-02-28T03:57:13;9.80;99.90
23813;DHT22;12087;45.190;5.688;2024-02-28T04:02:36;9.80;99.90
23813;DHT22;12087;45.190;5.688;2024-02-28T04:07:58;9.80;99.90
23813;DHT22;12087;45.190;5.688;2024-02-28T04:13:21;9.70;99.90
23813;DHT22;12087;45.190;5.688;2024-02-28T04:18:44;9.70;99.90
23813;DHT22;12087;45.190;5.688;2024-02-28T04:24:07;9.70;99.90
23813;DHT22;12087;45.190;5.688;2024-02-28T04:29:30;9.70;99.90
23813;DHT22;12087;45.190;5.688;2024-02-28T04:34:53;9.70;99.90
23813;DHT22;12087;45.190;5.688;2024-02-28T04:40:15;9.60;99.90
23813;DHT22;12087;45.190;5.688;2024-02-28T04:45:38;9.70;99.90
23813;DHT22;12087;45.190;5.688;2024-02-28T04:51:01;9.60;99.90
23813;DHT22;12087;45.190;5.688;2024-02-28T04:56:24;9.60;99.90
23813;DHT22;12087;45.190;5.688;2024-02-28T05:01:46;9.60;99.90
23813;DHT22;12087;45.190;5.688;2024-02-28T05:07:10;9.60;99.90
23813;DHT22;12087;45.190;5.688;2024-02-28T05:12:32;9.60;99.90
23813;DHT22;12087;45.190;5.688;2024-02-28T05:17:54;9.60;99.90
23813;DHT22;12087;45.190;5.688;2024-02-28T05:23:18;9.50;99.90
23813;DHT22;12087;45.190;5.688;2024-02-28T05:28:40;9.50;99.90
23813;DHT22;12087;45.190;5.688;2024-02-28T05:34:02;9.50;99.90
23813;DHT22;12087;45.190;5.688;2024-02-28T05:39:26;9.50;99.90
23813;DHT22;12087;45.190;5.688;2024-02-28T05:44:50;9.50;99.90
23813;DHT22;12087;45.190;5.688;2024-02-28T05:50:12;9.50;99.90
23813;DHT22;12087;45.190;5.688;2024-02-28T05:55:36;9.50;99.90
23813;DHT22;12087;45.190;5.688;2024-02-28T06:00:58;9.50;99.90
23813;DHT22;12087;45.190;5.688;2024-02-28T06:06:20;9.50;99.90
23813;DHT22;12087;45.190;5.688;2024-02-28T06:11:44;9.40;99.90
23813;DHT22;12087;45.190;5.688;2024-02-28T06:17:07;9.40;99.90
23813;DHT22;12087;45.190;5.688;2024-02-28T06:22:29;9.40;99.90
23813;DHT22;12087;45.190;5.688;2024-02-28T06:27:53;9.40;99.90
23813;DHT22;12087;45.190;5.688;2024-02-28T06:33:15;9.40;99.90
23813;DHT22;12087;45.190;5.688;2024-02-28T06:38:37;9.30;99.90
23813;DHT22;12087;45.190;5.688;2024-02-28T06:44:01;9.30;99.90
23813;DHT22;12087;45.190;5.688;2024-02-28T06:49:23;9.30;99.90
23813;DHT22;12087;45.190;5.688;2024-02-28T06:54:46;9.30;99.90
23813;DHT22;12087;45.190;5.688;2024-02-28T07:00:11;9.20;99.90
23813;DHT22;12087;45.190;5.688;2024-02-28T07:05:35;9.20;99.90
23813;DHT22;12087;45.190;5.688;2024-02-28T07:10:57;9.20;99.90
23813;DHT22;12087;45.190;5.688;2024-02-28T07:16:21;9.10;99.90
23813;DHT22;12087;45.190;5.688;2024-02-28T07:21:43;9.10;99.90
23813;DHT22;12087;45.190;5.688;2024-02-28T07:27:05;9.10;99.90
23813;DHT22;12087;45.190;5.688;2024-02-28T07:32:29;9.10;99.90
23813;DHT22;12087;45.190;5.688;2024-02-28T07:37:55;9.00;99.90
23813;DHT22;12087;45.190;5.688;2024-02-28T07:43:17;9.00;99.90
23813;DHT22;12087;45.190;5.688;2024-02-28T07:48:41;9.00;99.90
23813;DHT22;12087;45.190;5.688;2024-02-28T07:54:03;9.00;99.90
23813;DHT22;12087;45.190;5.688;2024-02-28T07:59:26;9.00;99.90
23813;DHT22;12087;45.190;5.688;2024-02-28T08:04:49;9.00;99.90
23813;DHT22;12087;45.190;5.688;2024-02-28T08:10:12;9.10;99.90
23813;DHT22;12087;45.190;5.688;2024-02-28T08:15:35;9.00;99.90
23813;DHT22;12087;45.190;5.688;2024-02-28T08:20:59;9.00;99.90
23813;DHT22;12087;45.190;5.688;2024-02-28T08:26:24;9.00;99.90
23813;DHT22;12087;45.190;5.688;2024-02-28T08:31:46;9.00;99.90
23813;DHT22;12087;45.190;5.688;2024-02-28T08:37:10;9.00;99.90
23813;DHT22;12087;45.190;5.688;2024-02-28T08:42:32;9.00;99.90
23813;DHT22;12087;45.190;5.688;2024-02-28T08:47:54;9.00;99.90
23813;DHT22;12087;45.190;5.688;2024-02-28T08:53:19;9.00;99.90
23813;DHT22;12087;45.190;5.688;2024-02-28T08:58:42;9.00;99.90
23813;DHT22;12087;45.190;5.688;2024-02-28T09:04:05;9.00;99.90
23813;DHT22;12087;45.190;5.688;2024-02-28T09:09:28;9.00;99.90
23813;DHT22;12087;45.190;5.688;2024-02-28T09:14:54;8.90;99.90
23813;DHT22;12087;45.190;5.688;2024-02-28T09:20:18;8.90;99.90
23813;DHT22;12087;45.190;5.688;2024-02-28T09:25:42;8.90;99.90
23813;DHT22;12087;45.190;5.688;2024-02-28T09:31:04;8.90;99.90
23813;DHT22;12087;45.190;5.688;2024-02-28T09:36:26;9.00;99.90
23813;DHT22;12087;45.190;5.688;2024-02-28T09:41:49;8.90;99.90
23813;DHT22;12087;45.190;5.688;2024-02-28T09:47:12;8.90;99.90
23813;DHT22;12087;45.190;5.688;2024-02-28T09:52:35;8.90;99.90
23813;DHT22;12087;45.190;5.688;2024-02-28T09:57:59;8.90;99.90
23813;DHT22;12087;45.190;5.688;2024-02-28T10:03:22;8.90;99.90
23813;DHT22;12087;45.190;5.688;2024-02-28T10:08:46;8.90;99.90
23813;DHT22;12087;45.190;5.688;2024-02-28T10:14:10;8.90;99.90
23813;DHT22;12087;45.190;5.688;2024-02-28T10:19:33;8.90;99.90
23813;DHT22;12087;45.190;5.688;2024-02-28T10:24:57;8.90;99.90
23813;DHT22;12087;45.190;5.688;2024-02-28T10:30:21;8.80;99.90
23813;DHT22;12087;45.190;5.688;2024-02-28T10:35:43;8.90;99.90
23813;DHT22;12087;45.190;5.688;2024-02-28T10:41:06;8.80;99.90
23813;DHT22;12087;45.190;5.688;2024-02-28T10:46:30;8.80;99.90
23813;DHT22;12087;45.190;5.688;2024-02-28T10:51:54;8.80;99.90
23813;DHT22;12087;45.190;5.688;2024-02-28T10:57:18;8.90;99.90
23813;DHT22;12087;45.190;5.688;2024-02-28T11:02:43;8.90;99.90
23813;DHT22;12087;45.190;5.688;2024-02-28T11:08:08;8.90;99.90
23813;DHT22;12087;45.190;5.688;2024-02-28T11:13:30;8.90;99.90
23813;DHT22;12087;45.190;5.688;2024-02-28T11:18:54;8.90;99.90
23813;DHT22;12087;45.190;5.688;2024-02-28T11:24:16;8.90;99.90
23813;DHT22;12087;45.190;5.688;2024-02-28T11:29:39;8.90;99.90
23813;DHT22;12087;45.190;5.688;2024-02-28T11:35:04;8.90;99.90
23813;DHT22;12087;45.190;5.688;2024-02-28T11:40:27;8.90;99.90
23813;DHT22;12087;45.190;5.688;2024-02-28T11:45:49;8.90;99.90
23813;DHT22;12087;45.190;5.688;2024-02-28T11:51:13;8.90;99.90
23813;DHT22;12087;45.190;5.688;2024-02-28T11:56:36;8.90;99.90
23813;DHT22;12087;45.190;5.688;2024-02-28T12:01:58;8.90;99.90
23813;DHT22;12087;45.190;5.688;2024-02-28T12:07:22;8.90;99.90
23813;DHT22;12087;45.190;5.688;2024-02-28T12:12:44;8.90;99.90
23813;DHT22;12087;45.190;5.688;2024-02-28T12:18:10;8.80;99.90
23813;DHT22;12087;45.190;5.688;2024-02-28T12:23:35;8.80;99.90
23813;DHT22;12087;45.190;5.688;2024-02-28T12:28:58;8.90;99.90
23813;DHT22;12087;45.190;5.688;2024-02-28T12:34:20;8.80;99.90
23813;DHT22;12087;45.190;5.688;2024-02-28T12:39:44;8.80;99.90
23813;DHT22;12087;45.190;5.688;2024-02-28T12:45:08;8.80;99.90
23813;DHT22;12087;45.190;5.688;2024-02-28T12:50:31;8.70;99.90
23813;DHT22;12087;45.190;5.688;2024-02-28T12:55:55;8.80;99.90
23813;DHT22;12087;45.190;5.688;2024-02-28T13:01:18;8.80;99.90
23813;DHT22;12087;45.190;5.688;2024-02-28T13:06:40;8.80;99.90
23813;DHT22;12087;45.190;5.688;2024-02-28T13:12:04;8.80;99.90
23813;DHT22;12087;45.190;5.688;2024-02-28T13:17:26;8.80;99.90
23813;DHT22;12087;45.190;5.688;2024-02-28T13:22:49;8.80;99.90
23813;DHT22;12087;45.190;5.688;2024-02-28T13:28:13;8.80;99.90
23813;DHT22;12087;45.190;5.688;2024-02-28T13:33:36;8.80;99.90
23813;DHT22;12087;45.190;5.688;2024-02-28T13:38:58;8.80;99.90
23813;DHT22;12087;45.190;5.688;2024-02-28T13:44:22;8.90;99.90
23813;DHT22;12087;45.190;5.688;2024-02-28T13:49:44;8.80;99.90
23813;DHT22;12087;45.190;5.688;2024-02-28T13:55:08;8.70;99.90
23813;DHT22;12087;45.190;5.688;2024-02-28T14:00:32;8.70;99.90
23813;DHT22;12087;45.190;5.688;2024-02-28T14:05:55;8.80;99.90
23813;DHT22;12087;45.190;5.688;2024-02-28T14:11:17;8.70;99.90
23813;DHT22;12087;45.190;5.688;2024-02-28T14:16:41;8.80;99.90
23813;DHT22;12087;45.190;5.688;2024-02-28T14:22:04;8.80;99.90
23813;DHT22;12087;45.190;5.688;2024-02-28T14:27:26;8.80;99.90
23813;DHT22;12087;45.190;5.688;2024-02-28T14:32:55;8.80;99.90
23813;DHT22;12087;45.190;5.688;2024-02-28T14:38:17;8.80;99.90
23813;DHT22;12087;45.190;5.688;2024-02-28T14:43:40;8.70;99.90
23813;DHT22;12087;45.190;5.688;2024-02-28T14:49:03;8.80;99.90
23813;DHT22;12087;45.190;5.688;2024-02-28T14:54:26;8.70;99.90
23813;DHT22;12087;45.190;5.688;2024-02-28T14:59:48;8.80;99.90
23813;DHT22;12087;45.190;5.688;2024-02-28T15:05:12;8.70;99.90
23813;DHT22;12087;45.190;5.688;2024-02-28T15:10:34;8.80;99.90
23813;DHT22;12087;45.190;5.688;2024-02-28T15:15:56;8.80;99.90
23813;DHT22;12087;45.190;5.688;2024-02-28T15:21:19;8.80;99.90
23813;DHT22;12087;45.190;5.688;2024-02-28T15:26:44;8.80;99.90
23813;DHT22;12087;45.190;5.688;2024-02-28T15:32:06;8.90;99.90
23813;DHT22;12087;45.190;5.688;2024-02-28T15:37:30;8.90;99.90
23813;DHT22;12087;45.190;5.688;2024-02-28T15:42:56;8.90;99.90
23813;DHT22;12087;45.190;5.688;2024-02-28T15:48:19;8.80;99.90
23813;DHT22;12087;45.190;5.688;2024-02-28T15:53:43;8.90;99.90
23813;DHT22;12087;45.190;5.688;2024-02-28T15:59:06;8.90;99.90
23813;DHT22;12087;45.190;5.688;2024-02-28T16:04:28;8.90;99.90
23813;DHT22;12087;45.190;5.688;2024-02-28T16:09:52;8.90;99.90
23813;DHT22;12087;45.190;5.688;2024-02-28T16:15:15;8.90;99.90
23813;DHT22;12087;45.190;5.688;2024-02-28T16:20:40;8.90;99.90
23813;DHT22;12087;45.190;5.688;2024-02-28T16:26:04;8.90;99.90
23813;DHT22;12087;45.190;5.688;2024-02-28T16:31:26;8.90;99.90
23813;DHT22;12087;45.190;5.688;2024-02-28T16:36:48;8.90;99.90
23813;DHT22;12087;45.190;5.688;2024-02-28T16:42:12;8.90;99.90
23813;DHT22;12087;45.190;5.688;2024-02-28T16:47:34;8.90;99.90
23813;DHT22;12087;45.190;5.688;2024-02-28T16:52:57;8.90;99.90
23813;DHT22;12087;45.190;5.688;2024-02-28T16:58:20;8.80;99.90
23813;DHT22;12087;45.190;5.688;2024-02-28T17:03:42;8.80;99.90
23813;DHT22;12087;45.190;5.688;2024-02-28T17:09:05;8.80;99.90
23813;DHT22;12087;45.190;5.688;2024-02-28T17:14:31;8.80;99.90
23813;DHT22;12087;45.190;5.688;2024-02-28T17:19:53;8.80;99.90
23813;DHT22;12087;45.190;5.688;2024-02-28T17:25:16;8.80;99.90
23813;DHT22;12087;45.190;5.688;2024-02-28T17:30:40;8.80;99.90
23813;DHT22;12087;45.190;5.688;2024-02-28T17:36:02;8.80;99.90
23813;DHT22;12087;45.190;5.688;2024-02-28T17:41:24;8.80;99.90
23813;DHT22;12087;45.190;5.688;2024-02-28T17:46:49;8.80;99.90
23813;DHT22;12087;45.190;5.688;2024-02-28T17:52:11;8.80;99.90
23813;DHT22;12087;45.190;5.688;2024-02-28T17:57:33;8.70;99.90
23813;DHT22;12087;45.190;5.688;2024-02-28T18:02:58;8.80;99.90
23813;DHT22;12087;45.190;5.688;2024-02-28T18:08:21;8.70;99.90
23813;DHT22;12087;45.190;5.688;2024-02-28T18:13:47;8.70;99.90
23813;DHT22;12087;45.190;5.688;2024-02-28T18:19:10;8.80;99.90
23813;DHT22;12087;45.190;5.688;2024-02-28T18:24:32;8.80;99.90
23813;DHT22;12087;45.190;5.688;2024-02-28T18:29:55;8.80;99.90
23813;DHT22;12087;45.190;5.688;2024-02-28T18:35:18;8.70;99.90
23813;DHT22;12087;45.190;5.688;2024-02-28T18:40:41;8.80;99.90
23813;DHT22;12087;45.190;5.688;2024-02-28T18:46:04;8.80;99.90
23813;DHT22;12087;45.190;5.688;2024-02-28T18:51:31;8.70;99.90
23813;DHT22;12087;45.190;5.688;2024-02-28T18:56:53;8.70;99.90
23813;DHT22;12087;45.190;5.688;2024-02-28T19:02:15;8.70;99.90
23813;DHT22;12087;45.190;5.688;2024-02-28T19:07:39;8.70;99.90
23813;DHT22;12087;45.190;5.688;2024-02-28T19:13:02;8.70;99.90
23813;DHT22;12087;45.190;5.688;2024-02-28T19:18:24;8.70;99.90
23813;DHT22;12087;45.190;5.688;2024-02-28T19:23:48;8.70;99.90
23813;DHT22;12087;45.190;5.688;2024-02-28T19:29:11;8.70;99.90
23813;DHT22;12087;45.190;5.688;2024-02-28T19:34:33;8.80;99.90
23813;DHT22;12087;45.190;5.688;2024-02-28T19:39:57;8.70;99.90
23813;DHT22;12087;45.190;5.688;2024-02-28T19:45:28;8.70;99.90
23813;DHT22;12087;45.190;5.688;2024-02-28T19:50:50;8.70;99.90
23813;DHT22;12087;45.190;5.688;2024-02-28T19:56:14;8.70;99.90
23813;DHT22;12087;45.190;5.688;2024-02-28T20:01:36;8.60;99.90
23813;DHT22;12087;45.190;5.688;2024-02-28T20:06:58;8.70;99.90
23813;DHT22;12087;45.190;5.688;2024-02-28T20:12:22;8.70;99.90
23813;DHT22;12087;45.190;5.688;2024-02-28T20:17:44;8.70;99.90
23813;DHT22;12087;45.190;5.688;2024-02-28T20:23:07;8.70;99.90
23813;DHT22;12087;45.190;5.688;2024-02-28T20:28:32;8.70;99.90
23813;DHT22;12087;45.190;5.688;2024-02-28T20:33:54;8.70;99.90
23813;DHT22;12087;45.190;5.688;2024-02-28T20:39:16;8.70;99.90
23813;DHT22;12087;45.190;5.688;2024-02-28T20:44:40;8.70;99.90
23813;DHT22;12087;45.190;5.688;2024-02-28T20:50:02;8.80;99.90
23813;DHT22;12087;45.190;5.688;2024-02-28T20:55:25;8.70;99.90
23813;DHT22;12087;45.190;5.688;2024-02-28T21:00:50;8.80;99.90
23813;DHT22;12087;45.190;5.688;2024-02-28T21:06:16;8.70;99.90
23813;DHT22;12087;45.190;5.688;2024-02-28T21:11:40;8.70;99.90
23813;DHT22;12087;45.190;5.688;2024-02-28T21:17:05;8.80;99.90
23813;DHT22;12087;45.190;5.688;2024-02-28T21:22:27;8.80;99.90
23813;DHT22;12087;45.190;5.688;2024-02-28T21:27:49;8.80;99.90
23813;DHT22;12087;45.190;5.688;2024-02-28T21:33:14;8.80;99.90
23813;DHT22;12087;45.190;5.688;2024-02-28T21:38:36;8.90;99.90
23813;DHT22;12087;45.190;5.688;2024-02-28T21:43:59;8.90;99.90
23813;DHT22;12087;45.190;5.688;2024-02-28T21:49:22;8.90;99.90
23813;DHT22;12087;45.190;5.688;2024-02-28T21:54:44;8.90;99.90
23813;DHT22;12087;45.190;5.688;2024-02-28T22:00:08;8.90;99.90
23813;DHT22;12087;45.190;5.688;2024-02-28T22:05:31;8.80;99.90
23813;DHT22;12087;45.190;5.688;2024-02-28T22:10:53;8.90;99.90
23813;DHT22;12087;45.190;5.688;2024-02-28T22:16:17;8.80;99.90
23813;DHT22;12087;45.190;5.688;2024-02-28T22:21:41;8.80;99.90
23813;DHT22;12087;45.190;5.688;2024-02-28T22:27:04;8.90;99.90
23813;DHT22;12087;45.190;5.688;2024-02-28T22:32:26;8.90;99.90
23813;DHT22;12087;45.190;5.688;2024-02-28T22:37:50;8.90;99.90
23813;DHT22;12087;45.190;5.688;2024-02-28T22:43:12;8.90;99.90
23813;DHT22;12087;45.190;5.688;2024-02-28T22:48:34;8.80;99.90
23813;DHT22;12087;45.190;5.688;2024-02-28T22:53:58;8.80;99.90
23813;DHT22;12087;45.190;5.688;2024-02-28T22:59:21;8.90;99.90
23813;DHT22;12087;45.190;5.688;2024-02-28T23:04:43;8.90;99.90
23813;DHT22;12087;45.190;5.688;2024-02-28T23:10:08;8.80;99.90
23813;DHT22;12087;45.190;5.688;2024-02-28T23:15:30;8.80;99.90
23813;DHT22;12087;45.190;5.688;2024-02-28T23:20:53;8.90;99.90
23813;DHT22;12087;45.190;5.688;2024-02-28T23:26:17;8.90;99.90
23813;DHT22;12087;45.190;5.688;2024-02-28T23:31:39;8.90;99.90
23813;DHT22;12087;45.190;5.688;2024-02-28T23:37:01;8.80;99.90
23813;DHT22;12087;45.190;5.688;2024-02-28T23:42:25;8.90;99.90
23813;DHT22;12087;45.190;5.688;2024-02-28T23:47:47;8.80;99.90
23813;DHT22;12087;45.190;5.688;2024-02-28T23:53:09;8.90;99.90
23813;DHT22;12087;45.190;5.688;2024-02-28T23:58:36;8.90;99.90
